createdAt,value
2023-01-27T04:04:29.720Z,60.57
2023-01-27T04:05:31.696Z,50.59
2023-01-27T04:06:36.348Z,53.43
2023-01-27T04:07:38.352Z,55.30
2023-01-27T04:08:44.232Z,59.03
2023-01-27T04:09:46.384Z,50.23
2023-01-27T04:10:48.463Z,58.32
2023-01-27T04:11:50.751Z,53.94
2023-01-27T04:12:52.668Z,53.47
2023-01-27T04:13:54.529Z,56.49
2023-01-27T04:14:57.271Z,56.11
2023-01-27T04:15:59.221Z,60.20
2023-01-27T04:17:07.449Z,57.27
2023-01-27T04:18:09.476Z,59.80
2023-01-27T04:19:13.728Z,56.42
2023-01-27T04:20:16.485Z,63.31
2023-01-27T04:21:18.373Z,60.45
2023-01-27T04:22:20.291Z,65.13
2023-01-27T04:23:22.779Z,64.64
2023-01-27T04:24:25.073Z,60.71
2023-01-27T04:25:27.168Z,60.68
2023-01-27T04:26:30.022Z,61.29
2023-01-27T04:27:31.905Z,65.83
2023-01-27T04:28:43.766Z,59.59
2023-01-27T04:29:39.948Z,60.32
2023-01-27T04:30:42.162Z,62.30
2023-01-27T04:31:44.151Z,66.92
2023-01-27T04:32:46.299Z,63.03
2023-01-27T04:33:48.585Z,67.61
2023-01-27T04:34:50.528Z,72.65
2023-01-27T04:35:52.520Z,72.63
2023-01-27T04:36:55.631Z,69.87
2023-01-27T04:37:57.524Z,69.76
2023-01-27T04:38:59.726Z,69.43
2023-01-27T04:40:01.612Z,65.49
2023-01-27T04:41:03.711Z,70.83
2023-01-27T04:42:05.786Z,67.55
2023-01-27T04:43:07.672Z,75.06
2023-01-27T04:44:09.791Z,73.16
2023-01-27T04:45:12.129Z,66.97
2023-01-27T04:46:14.409Z,72.71
2023-01-27T04:47:16.444Z,69.41
2023-01-27T04:48:18.324Z,74.80
2023-01-27T04:49:20.616Z,69.93
2023-01-27T04:50:22.737Z,70.28
2023-01-27T04:51:24.639Z,76.05
2023-01-27T04:52:27.608Z,69.17
2023-01-27T04:53:29.584Z,71.14
2023-01-27T04:54:31.512Z,72.80
2023-01-27T04:55:34.185Z,70.61
2023-01-27T04:56:39.001Z,72.42
2023-01-27T04:57:41.075Z,73.02
2023-01-27T04:58:42.948Z,73.69
2023-01-27T04:59:45.244Z,68.30
2023-01-27T05:00:47.421Z,74.72
2023-01-27T05:01:49.896Z,71.09
2023-01-27T05:02:51.890Z,70.25
2023-01-27T05:03:55.210Z,68.90
2023-01-27T05:04:57.138Z,72.97
2023-01-27T05:05:59.114Z,69.96
2023-01-27T05:07:01.279Z,78.56
2023-01-27T05:08:04.681Z,74.77
2023-01-27T05:09:06.620Z,72.94
2023-01-27T05:10:10.314Z,72.00
2023-01-27T05:11:13.013Z,62.27
2023-01-27T05:12:15.031Z,78.56
2023-01-27T05:13:18.856Z,67.42
2023-01-27T05:14:20.778Z,72.83
2023-01-27T05:15:24.517Z,76.80
2023-01-27T05:16:26.757Z,72.02
2023-01-27T05:17:33.455Z,64.17
2023-01-27T05:18:36.104Z,64.54
2023-01-27T05:19:37.994Z,67.26
2023-01-27T05:20:40.351Z,65.04
2023-01-27T05:21:42.228Z,62.34
2023-01-27T05:22:44.128Z,62.46
2023-01-27T05:23:46.234Z,60.78
2023-01-27T05:24:48.264Z,56.15
2023-01-27T05:25:50.562Z,64.90
2023-01-27T05:26:52.535Z,66.44
2023-01-27T05:27:54.430Z,64.05
2023-01-27T05:28:58.891Z,68.65
2023-01-27T05:30:01.753Z,65.06
2023-01-27T05:31:10.505Z,66.69
2023-01-27T05:32:12.524Z,61.44
2023-01-27T05:33:15.538Z,66.66
2023-01-27T05:34:17.580Z,65.57
2023-01-27T05:35:19.701Z,67.53
2023-01-27T05:36:23.383Z,72.27
2023-01-27T05:37:26.284Z,72.70
2023-01-27T05:38:29.317Z,70.60
2023-01-27T05:39:31.462Z,66.27
2023-01-27T05:40:33.535Z,67.83
2023-01-27T05:41:37.029Z,59.69
2023-01-27T05:42:39.108Z,58.43
2023-01-27T05:43:43.229Z,57.86
2023-01-27T05:44:45.202Z,57.91
2023-01-27T05:45:47.269Z,56.37
2023-01-27T05:46:49.398Z,54.53
2023-01-27T05:47:51.937Z,55.99
2023-01-27T05:48:56.270Z,55.90
2023-01-27T05:49:58.190Z,53.62
2023-01-27T05:51:00.386Z,56.55
2023-01-27T05:52:02.412Z,56.97
2023-01-27T05:53:04.472Z,56.51
2023-01-27T05:54:07.337Z,53.57
2023-01-27T05:55:09.637Z,51.90
2023-01-27T05:56:13.877Z,50.47
2023-01-27T05:57:15.818Z,48.99
2023-01-27T05:58:19.284Z,48.98
2023-01-27T05:59:21.354Z,47.54
2023-01-27T06:00:23.680Z,46.37
2023-01-27T06:02:38.414Z,44.36
2023-01-27T06:03:41.776Z,45.00
2023-01-27T06:04:44.018Z,44.81
2023-01-27T06:05:51.360Z,44.47
2023-01-27T06:06:53.382Z,42.24
2023-01-27T06:07:57.457Z,41.05
2023-01-27T06:08:59.920Z,43.06
2023-01-27T06:10:01.897Z,44.27
2023-01-27T06:11:06.154Z,44.11
2023-01-27T06:12:08.085Z,43.34
2023-01-27T06:13:10.072Z,46.35
2023-01-27T06:14:12.207Z,47.14
2023-01-27T06:15:14.721Z,47.05
2023-01-27T06:16:20.157Z,46.08
2023-01-27T06:17:22.190Z,45.06
2023-01-27T06:18:24.245Z,49.31
2023-01-27T06:19:26.240Z,49.06
2023-01-27T06:20:28.195Z,47.64
2023-01-27T06:21:30.074Z,45.37
2023-01-27T06:22:32.344Z,44.29
2023-01-27T06:23:34.820Z,51.06
2023-01-27T06:24:36.807Z,42.79
2023-01-27T06:25:41.652Z,45.42
2023-01-27T06:26:43.689Z,46.18
2023-01-27T06:27:45.557Z,44.19
2023-01-27T06:28:47.762Z,42.86
2023-01-27T06:29:49.717Z,45.79
2023-01-27T06:30:51.742Z,45.49
2023-01-27T06:31:53.746Z,41.37
2023-01-27T06:32:55.808Z,43.69
2023-01-27T06:33:59.426Z,45.08
2023-01-27T06:35:02.834Z,48.21
2023-01-27T06:36:08.314Z,49.01
2023-01-27T06:37:10.275Z,41.76
2023-01-27T06:38:13.080Z,46.40
2023-01-27T06:39:14.984Z,46.95
2023-01-27T06:40:17.647Z,45.28
2023-01-27T06:41:19.897Z,45.97
2023-01-27T06:42:21.916Z,51.66
2023-01-27T06:43:25.507Z,47.16
2023-01-27T06:44:27.389Z,48.15
2023-01-27T06:45:29.793Z,43.91
2023-01-27T06:46:31.892Z,49.73
2023-01-27T06:47:33.893Z,43.27
2023-01-27T06:48:36.021Z,47.13
2023-01-27T06:49:38.039Z,51.17
2023-01-27T06:50:40.227Z,43.62
2023-01-27T06:51:42.304Z,48.14
2023-01-27T06:52:44.203Z,46.02
2023-01-27T06:53:46.965Z,45.45
2023-01-27T06:54:48.846Z,50.67
2023-01-27T06:55:56.220Z,43.63
2023-01-27T06:56:58.287Z,50.13
2023-01-27T06:58:03.679Z,47.69
2023-01-27T06:59:05.602Z,46.74
2023-01-27T07:00:09.475Z,46.51
2023-01-27T07:01:11.540Z,50.16
2023-01-27T07:02:13.710Z,56.54
2023-01-27T07:03:16.789Z,46.26
2023-01-27T07:04:18.798Z,51.23
2023-01-27T07:05:20.691Z,50.29
2023-01-27T07:06:22.710Z,48.69
2023-01-27T07:07:24.639Z,54.92
2023-01-27T07:08:26.685Z,45.45
2023-01-27T07:09:28.562Z,50.09
2023-01-27T07:10:30.899Z,53.41
2023-01-27T07:11:32.775Z,49.74
2023-01-27T07:12:35.292Z,56.66
2023-01-27T07:13:37.182Z,56.63
2023-01-27T07:14:39.078Z,48.53
2023-01-27T07:15:45.372Z,54.03
2023-01-27T07:16:47.402Z,55.84
2023-01-27T07:17:49.390Z,54.51
2023-01-27T07:18:51.314Z,59.73
2023-01-27T07:19:53.357Z,50.37
2023-01-27T07:20:55.341Z,60.84
2023-01-27T07:21:57.333Z,50.05
2023-01-27T07:23:01.598Z,58.00
2023-01-27T07:24:05.806Z,49.60
2023-01-27T07:25:08.151Z,52.65
2023-01-27T07:26:24.337Z,54.13
2023-01-27T07:27:14.742Z,53.92
2023-01-27T07:28:16.776Z,54.34
2023-01-27T07:29:18.989Z,59.12
2023-01-27T07:30:21.121Z,50.16
2023-01-27T07:31:23.364Z,57.41
2023-01-27T07:32:27.344Z,55.44
2023-01-27T07:33:29.415Z,52.92
2023-01-27T07:34:31.577Z,55.75
2023-01-27T07:35:36.132Z,51.20
2023-01-27T07:36:38.291Z,53.46
2023-01-27T07:37:40.165Z,55.96
2023-01-27T07:38:42.354Z,49.47
2023-01-27T07:39:44.236Z,55.30
2023-01-27T07:40:47.396Z,56.61
2023-01-27T07:41:49.716Z,55.30
2023-01-27T07:42:51.973Z,53.47
2023-01-27T07:43:53.955Z,53.39
2023-01-27T07:44:55.925Z,58.43
2023-01-27T07:45:59.056Z,57.14
2023-01-27T07:47:02.731Z,49.31
2023-01-27T12:20:40.537Z,26.97
2023-01-27T12:21:46.233Z,27.92
2023-01-27T12:22:53.627Z,26.11
2023-01-27T12:23:56.908Z,26.23
2023-01-27T12:25:06.475Z,24.65
2023-01-27T12:26:10.800Z,28.79
2023-01-27T12:27:28.593Z,28.22
2023-01-27T12:28:42.832Z,29.36
2023-01-27T12:29:54.695Z,27.91
2023-01-27T12:31:15.571Z,30.33
2023-01-27T12:32:23.998Z,28.84
2023-01-27T12:33:32.438Z,29.93
2023-01-27T12:34:36.572Z,31.01
2023-01-27T12:35:39.800Z,27.33
2023-01-27T12:36:43.926Z,30.26
2023-01-27T12:37:49.404Z,29.16
2023-01-27T12:38:54.339Z,31.71
2023-01-27T12:40:00.135Z,29.33
2023-01-27T12:41:06.376Z,31.17
2023-01-27T12:42:40.772Z,29.28
2023-01-27T12:43:58.091Z,29.07
2023-01-27T12:45:00.690Z,29.54
2023-01-27T12:46:21.930Z,27.69
2023-01-27T12:47:29.079Z,31.23
2023-01-27T12:48:32.712Z,33.98
2023-01-27T12:49:37.503Z,31.51
2023-01-27T12:50:43.626Z,29.86
2023-01-27T12:51:52.123Z,33.61
2023-01-27T12:53:15.215Z,34.47
2023-01-27T12:54:27.579Z,31.12
2023-01-27T12:55:33.387Z,33.28
2023-01-27T12:56:36.910Z,31.52
2023-01-27T12:57:42.785Z,30.51
2023-01-27T12:58:58.646Z,31.83
2023-01-27T13:00:01.093Z,29.54
2023-01-27T13:01:06.697Z,34.51
2023-01-27T13:02:24.400Z,31.26
2023-01-27T13:03:27.982Z,29.87
2023-01-27T13:04:30.929Z,33.86
2023-01-27T13:05:39.014Z,29.04
2023-01-27T13:07:03.348Z,35.67
2023-01-27T13:08:09.651Z,31.12
2023-01-27T13:09:27.226Z,34.58
2023-01-27T13:10:32.214Z,34.08
2023-01-27T13:11:41.971Z,28.62
2023-01-27T13:15:10.625Z,32.13
2023-01-27T13:16:30.072Z,28.07
2023-01-27T13:17:38.952Z,29.00
2023-01-27T13:18:40.975Z,29.82
2023-01-27T13:19:46.543Z,32.97
2023-01-27T13:20:52.326Z,35.00
2023-01-27T13:21:55.329Z,33.68
2023-01-27T13:23:18.229Z,35.38
2023-01-27T13:24:33.827Z,33.19
2023-01-27T13:25:45.810Z,29.87
2023-01-27T13:26:50.966Z,31.69
2023-01-27T13:27:56.636Z,33.22
2023-01-27T13:29:19.018Z,31.44
2023-01-27T13:30:40.068Z,33.91
2023-01-27T13:31:54.684Z,35.04
2023-01-27T13:33:00.557Z,34.81
2023-01-27T13:34:12.561Z,31.03
2023-01-27T13:35:33.233Z,33.00
2023-01-27T13:38:08.007Z,36.22
2023-01-27T13:39:47.507Z,36.93
2023-01-27T13:40:52.774Z,37.01
2023-01-27T13:42:10.639Z,39.71
2023-01-27T13:43:31.756Z,32.18
2023-01-27T13:44:37.455Z,37.55
2023-01-27T13:45:55.159Z,38.19
2023-01-27T13:47:04.512Z,33.45
2023-01-27T13:48:16.532Z,37.24
2023-01-27T13:49:34.505Z,36.41
2023-01-27T13:50:43.309Z,36.79
2023-01-27T13:51:45.531Z,37.19
2023-01-27T13:52:51.003Z,38.16
2023-01-27T13:54:01.852Z,37.82
2023-01-27T13:55:04.944Z,35.82
2023-01-27T13:56:16.991Z,38.35
2023-01-27T13:57:39.822Z,41.45
2023-01-27T13:59:08.072Z,35.87
2023-01-27T14:00:14.363Z,35.84
2023-01-27T14:01:26.069Z,38.77
2023-01-27T14:02:47.093Z,35.54
2023-01-27T14:03:58.964Z,34.83
2023-01-27T14:05:18.828Z,34.82
2023-01-27T14:06:33.491Z,35.21
2023-01-27T14:07:42.311Z,33.36
2023-01-27T14:10:22.340Z,35.90
2023-01-27T14:11:44.734Z,35.13
2023-01-27T14:13:25.886Z,35.49
2023-01-27T14:14:57.445Z,32.24
2023-01-27T14:18:17.359Z,30.70
2023-01-27T14:19:46.144Z,35.14
2023-01-27T14:21:09.033Z,29.54
2023-01-27T14:23:37.540Z,32.43
2023-01-27T14:24:55.218Z,30.03
2023-01-27T14:26:06.696Z,31.96
2023-01-27T14:28:24.823Z,28.02
2023-01-27T14:29:36.279Z,31.39
2023-01-27T14:30:43.375Z,31.64
2023-01-27T14:31:52.192Z,33.48
2023-01-27T14:33:15.850Z,30.98
2023-01-27T14:34:36.381Z,29.63
2023-01-27T14:35:57.557Z,30.01
2023-01-27T14:37:12.656Z,28.47
2023-01-27T14:38:33.136Z,35.22
2023-01-27T14:39:59.218Z,30.67
2023-01-27T14:41:40.274Z,33.39
2023-01-27T14:42:48.954Z,31.70
2023-01-27T14:44:00.591Z,29.49
2023-01-27T14:45:27.642Z,32.87
2023-01-27T14:46:48.660Z,29.98
2023-01-27T14:48:24.694Z,32.26
2023-01-27T14:49:33.451Z,31.76
2023-01-27T14:51:03.428Z,30.66
2023-01-27T14:52:12.010Z,30.29
2023-01-27T14:53:45.316Z,33.36
2023-01-27T14:55:03.032Z,28.17
2023-01-27T14:56:28.723Z,31.17
2023-01-27T14:57:49.925Z,34.07
2023-01-27T14:59:19.532Z,33.53
2023-01-27T15:00:40.440Z,34.67
2023-01-27T15:01:46.243Z,34.67
2023-01-27T15:02:54.996Z,29.52
2023-01-27T15:04:27.035Z,36.19
2023-01-27T15:10:39.118Z,33.18
2023-01-27T15:12:14.011Z,33.74
2023-01-27T15:13:25.657Z,35.67
2023-01-27T15:14:55.879Z,34.67
2023-01-27T15:16:04.521Z,37.70
2023-01-27T15:17:31.850Z,34.08
2023-01-27T15:18:55.846Z,32.70
2023-01-27T15:20:13.685Z,32.73
2023-01-27T15:21:35.162Z,33.54
2023-01-27T15:23:04.367Z,35.03
2023-01-27T15:24:45.165Z,31.72
2023-01-27T15:25:50.937Z,39.38
2023-01-27T15:26:54.055Z,33.93
2023-01-27T15:27:57.340Z,32.93
2023-01-27T15:29:00.173Z,38.52
2023-01-27T15:30:17.058Z,34.85
2023-01-27T15:31:22.858Z,37.62
2023-01-27T15:32:27.717Z,37.27
2023-01-27T15:33:54.678Z,34.31
2023-01-27T15:35:16.726Z,38.68
2023-01-27T15:36:31.509Z,36.93
2023-01-27T15:37:38.329Z,34.62
2023-01-27T15:38:40.391Z,36.41
2023-01-27T15:40:07.759Z,38.18
2023-01-27T15:41:15.087Z,36.52
2023-01-27T15:42:18.580Z,38.83
2023-01-27T15:43:22.244Z,38.08
2023-01-27T15:44:31.519Z,36.66
2023-01-27T15:45:38.612Z,40.46
2023-01-27T15:46:46.889Z,37.43
2023-01-27T15:48:02.463Z,36.58
2023-01-27T15:49:08.231Z,35.89
2023-01-27T15:50:18.309Z,34.55
2023-01-27T15:51:24.246Z,37.34
2023-01-27T15:52:36.009Z,34.66
2023-01-27T15:53:41.741Z,33.37
2023-01-27T19:43:16.216Z,49.53
2023-01-27T19:44:18.085Z,52.59
2023-01-27T19:45:21.061Z,48.49
2023-01-27T19:46:24.181Z,49.00
2023-01-27T19:47:26.269Z,47.60
2023-01-27T19:48:28.164Z,48.79
2023-01-27T19:49:30.129Z,49.11
2023-01-27T19:50:32.431Z,44.15
2023-01-27T19:51:34.322Z,42.63
2023-01-27T19:52:36.182Z,45.13
2023-01-27T19:53:38.065Z,43.33
2023-01-27T19:54:39.985Z,44.51
2023-01-27T19:55:42.551Z,43.36
2023-01-27T19:56:45.046Z,47.71
2023-01-27T19:57:48.382Z,40.61
2023-01-27T19:58:52.171Z,37.46
2023-01-27T19:59:54.667Z,45.85
2023-01-27T20:00:56.725Z,41.12
2023-01-27T20:01:59.050Z,39.73
2023-01-27T20:03:02.198Z,40.91
2023-01-27T20:04:04.343Z,39.67
2023-01-27T20:05:07.921Z,42.93
2023-01-27T20:06:16.635Z,41.51
2023-01-27T20:07:18.533Z,43.94
2023-01-27T20:08:20.500Z,42.69
2023-01-27T20:09:22.399Z,42.71
2023-01-27T20:11:40.956Z,50.49
2023-01-27T20:13:05.055Z,39.06
2023-01-27T20:14:16.993Z,41.74
2023-01-27T20:15:19.642Z,37.12
2023-01-27T20:16:22.609Z,39.07
2023-01-27T20:17:25.058Z,39.67
2023-01-27T20:18:26.941Z,39.45
2023-01-27T20:19:28.916Z,40.06
2023-01-27T20:20:31.096Z,41.34
2023-01-27T20:21:33.069Z,38.05
2023-01-27T20:22:35.994Z,39.34
2023-01-27T20:23:37.886Z,41.17
2023-01-27T20:24:39.744Z,40.47
2023-01-27T20:25:42.163Z,40.12
2023-01-27T20:26:44.868Z,40.89
2023-01-27T20:27:52.316Z,37.59
2023-01-27T20:28:54.575Z,35.11
2023-01-27T20:29:56.562Z,33.86
2023-01-27T20:30:58.938Z,35.96
2023-01-27T20:32:01.942Z,38.16
2023-01-27T20:33:04.513Z,33.02
2023-01-27T20:34:06.581Z,36.93
2023-01-27T20:35:09.067Z,41.62
2023-01-27T20:36:14.583Z,35.92
2023-01-27T20:37:16.512Z,38.06
2023-01-27T20:38:18.390Z,37.61
2023-01-27T20:39:21.729Z,36.83
2023-01-27T20:40:26.633Z,33.73
2023-01-27T20:41:28.562Z,36.41
2023-01-27T20:42:30.433Z,32.04
2023-01-27T20:43:35.707Z,33.36
2023-01-27T20:44:37.524Z,34.69
2023-01-27T20:45:39.446Z,36.31
2023-01-27T20:46:41.576Z,35.44
2023-01-27T20:47:48.992Z,35.65
2023-01-27T20:49:43.342Z,34.52
2023-01-27T20:50:47.556Z,35.33
2023-01-27T20:51:49.568Z,37.93
2023-01-27T20:52:51.641Z,33.11
2023-01-27T20:53:54.134Z,37.55
2023-01-27T20:54:56.010Z,36.55
2023-01-27T20:56:04.641Z,36.31
2023-01-27T20:57:06.595Z,32.61
2023-01-27T20:58:09.620Z,36.92
2023-01-27T20:59:11.506Z,35.66
2023-01-27T21:00:20.027Z,33.93
2023-01-27T21:01:23.102Z,37.43
2023-01-27T21:02:26.260Z,35.36
2023-01-27T21:03:28.275Z,35.14
2023-01-27T21:04:30.237Z,34.68
2023-01-27T21:05:32.144Z,34.33
2023-01-27T21:06:34.546Z,33.14
2023-01-27T21:07:36.526Z,32.43
2023-01-27T21:08:38.990Z,38.43
2023-01-27T21:09:40.973Z,33.13
2023-01-27T21:10:42.960Z,32.91
2023-01-27T21:11:44.821Z,36.03
2023-01-27T21:12:46.694Z,37.72
2023-01-27T21:13:50.725Z,34.79
2023-01-27T21:14:52.648Z,36.91
2023-01-27T21:15:54.864Z,34.23
2023-01-27T21:16:57.130Z,33.99
2023-01-27T21:17:59.187Z,32.35
2023-01-27T21:19:02.485Z,33.39
2023-01-27T21:20:06.415Z,35.84
2023-01-27T21:21:23.601Z,34.65
2023-01-27T21:22:25.496Z,37.45
2023-01-27T21:23:27.862Z,33.15
2023-01-27T21:24:30.805Z,36.19
2023-01-27T21:25:37.675Z,35.04
2023-01-27T21:26:39.819Z,34.07
2023-01-27T21:27:41.736Z,36.27
2023-01-27T21:28:45.403Z,36.99
2023-01-27T21:29:47.473Z,35.43
2023-01-27T21:30:49.572Z,39.58
2023-01-27T21:31:51.522Z,37.48
2023-01-27T21:32:53.598Z,35.72
2023-01-27T21:33:58.095Z,39.61
2023-01-27T21:35:00.003Z,38.36
2023-01-27T21:36:03.532Z,36.05
2023-01-27T21:37:05.476Z,37.09
2023-01-27T21:38:07.666Z,36.31
2023-01-27T21:39:09.660Z,36.27
2023-01-27T21:40:13.107Z,30.55
2023-01-27T21:41:17.511Z,31.41
2023-01-27T21:42:19.436Z,34.27
2023-01-27T21:43:23.660Z,33.19
2023-01-27T21:45:38.619Z,37.08
2023-01-27T21:46:40.786Z,36.94
2023-01-27T21:47:42.882Z,35.81
2023-01-27T21:48:44.778Z,35.65
2023-01-27T21:49:47.014Z,38.09
2023-01-27T21:50:52.344Z,36.89
2023-01-27T21:51:54.483Z,40.44
2023-01-27T21:52:56.452Z,38.19
2023-01-27T21:53:58.358Z,42.14
2023-01-27T21:55:03.303Z,37.71
2023-01-27T21:56:07.571Z,40.84
2023-01-27T21:57:10.880Z,36.56
2023-01-27T21:58:12.767Z,40.12
2023-01-27T21:59:15.556Z,41.08
2023-01-27T22:00:21.469Z,38.61
2023-01-27T22:01:23.525Z,42.27
2023-01-27T22:02:26.179Z,42.73
2023-01-27T22:03:30.096Z,43.51
2023-01-27T22:04:32.105Z,46.44
2023-01-27T22:05:36.305Z,41.96
2023-01-27T22:06:39.300Z,41.54
2023-01-27T22:07:41.291Z,46.01
2023-01-27T22:08:44.102Z,48.17
2023-01-27T22:09:46.567Z,45.55
2023-01-27T22:10:48.632Z,44.90
2023-01-27T22:11:50.499Z,45.42
2023-01-27T22:12:58.640Z,43.55
2023-01-27T22:14:00.664Z,46.38
2023-01-27T22:15:03.089Z,48.53
2023-01-27T22:16:06.588Z,46.58
2023-01-27T22:17:09.254Z,47.44
2023-01-27T22:18:11.137Z,53.20
2023-01-27T22:19:13.001Z,43.94
2023-01-27T22:20:16.471Z,46.02
2023-01-27T22:21:18.364Z,44.85
2023-01-27T22:22:20.243Z,47.26
2023-01-27T22:23:22.279Z,42.95
2023-01-27T22:24:24.188Z,42.70
2023-01-27T22:25:27.763Z,41.95
2023-01-27T22:26:29.773Z,44.84
2023-01-27T22:27:31.625Z,48.98
2023-01-27T22:28:33.538Z,47.43
2023-01-27T22:29:35.390Z,46.22
2023-01-27T22:30:37.503Z,45.27
2023-01-27T22:31:39.985Z,52.41
2023-01-27T22:32:42.930Z,47.19
2023-01-27T22:33:45.071Z,46.01
2023-01-27T22:34:46.980Z,48.75
2023-01-27T22:35:52.612Z,46.59
2023-01-27T22:36:54.713Z,46.65
2023-01-27T22:37:56.716Z,51.03
2023-01-27T22:38:58.891Z,48.69
2023-01-27T22:40:01.069Z,51.76
2023-01-27T22:41:03.343Z,48.99
2023-01-27T22:42:05.355Z,52.94
2023-01-27T22:43:07.245Z,48.09
2023-01-27T22:44:09.777Z,48.79
2023-01-27T22:45:12.026Z,49.83
2023-01-27T22:46:14.746Z,47.46
2023-01-27T22:47:17.150Z,51.96
2023-01-27T22:48:20.271Z,50.23
2023-01-27T22:49:22.503Z,54.26
2023-01-27T22:50:24.678Z,55.43
2023-01-27T22:51:26.565Z,53.36
2023-01-27T22:52:28.438Z,56.11
2023-01-27T22:53:31.737Z,53.75
2023-01-27T22:54:33.765Z,57.76
2023-01-27T22:55:35.802Z,55.19
2023-01-27T22:56:37.979Z,50.76
2023-01-27T22:57:40.031Z,49.67
2023-01-27T22:58:41.909Z,49.25
2023-01-27T22:59:45.095Z,50.08
2023-01-27T23:00:47.199Z,50.52
2023-01-27T23:01:49.170Z,48.73
2023-01-27T23:02:51.059Z,53.67
2023-01-27T23:03:52.947Z,49.93
2023-01-27T23:04:58.474Z,50.81
2023-01-27T23:06:04.931Z,49.47
2023-01-27T23:07:06.853Z,51.52
2023-01-27T23:08:09.603Z,47.72
2023-01-27T23:09:14.020Z,52.19
2023-01-27T23:10:16.582Z,49.25
2023-01-27T23:11:18.686Z,51.27
2023-01-27T23:12:21.886Z,50.58
2023-01-27T23:13:24.281Z,50.55
2023-01-27T23:14:26.199Z,47.47
2023-01-27T23:15:28.134Z,50.17
2023-01-27T23:16:30.479Z,49.79
2023-01-27T23:17:32.916Z,48.13
2023-01-27T23:18:34.965Z,46.43
2023-01-27T23:19:36.871Z,48.99
2023-01-27T23:20:40.767Z,46.91
2023-01-27T23:21:42.738Z,56.16
2023-01-27T23:22:44.900Z,54.71
2023-01-27T23:23:52.260Z,50.33
2023-01-27T23:24:54.323Z,50.50
2023-01-27T23:25:56.224Z,55.78
2023-01-27T23:26:58.551Z,54.08
2023-01-27T23:28:00.547Z,52.27
2023-01-27T23:29:02.466Z,49.98
2023-01-27T23:30:07.403Z,49.99
2023-01-27T23:31:11.515Z,54.54
2023-01-27T23:32:13.707Z,54.40
2023-01-27T23:33:18.109Z,52.23
2023-01-27T23:34:20.460Z,51.21
2023-01-27T23:35:23.537Z,53.73
2023-01-27T23:36:25.661Z,54.85
2023-01-27T23:37:28.321Z,54.88
2023-01-27T23:38:33.614Z,54.98
2023-01-27T23:39:34.033Z,55.96
2023-01-27T23:40:36.751Z,54.23
2023-01-27T23:41:38.644Z,55.10
2023-01-27T23:42:41.688Z,54.55
2023-01-27T23:43:44.981Z,55.34
2023-01-27T23:44:47.585Z,52.81
2023-01-27T23:45:53.713Z,59.83
2023-01-27T23:46:55.913Z,54.02
2023-01-27T23:47:58.009Z,56.25
2023-01-27T23:48:59.888Z,56.93
2023-01-27T23:50:02.170Z,52.71
2023-01-27T23:51:09.780Z,48.77
2023-01-27T23:52:11.982Z,50.15
2023-01-27T23:53:15.141Z,53.51
2023-01-27T23:54:17.335Z,44.73
2023-01-27T23:55:19.498Z,50.09
2023-01-27T23:56:21.477Z,47.01
2023-01-27T23:57:23.379Z,51.29
2023-01-27T23:58:26.678Z,49.27
2023-01-27T23:59:28.768Z,43.74
